createdAt,value
2023-12-30T00:02:30.754Z,9.45
2023-12-30T00:17:28.109Z,9.52
2023-12-30T00:32:25.380Z,9.58
2023-12-30T00:47:22.691Z,9.60
2023-12-30T01:02:19.977Z,9.52
2023-12-30T01:17:17.327Z,9.45
2023-12-30T01:32:14.589Z,9.31
2023-12-30T01:47:11.925Z,9.29
2023-12-30T02:02:09.299Z,9.25
2023-12-30T02:17:06.517Z,9.06
2023-12-30T02:32:03.823Z,8.66
2023-12-30T02:47:01.021Z,8.03
2023-12-30T03:01:58.248Z,7.96
2023-12-30T03:16:55.495Z,7.76
2023-12-30T03:31:52.758Z,7.85
2023-12-30T03:46:50.004Z,7.76
2023-12-30T04:01:47.435Z,7.92
2023-12-30T04:16:44.553Z,7.75
2023-12-30T04:31:41.866Z,6.59
2023-12-30T04:46:39.136Z,6.16
2023-12-30T05:01:36.425Z,6.17
2023-12-30T05:16:33.715Z,6.17
2023-12-30T05:31:30.943Z,6.18
2023-12-30T05:46:28.198Z,6.21
2023-12-30T06:01:25.514Z,6.36
2023-12-30T06:16:22.762Z,6.32
2023-12-30T06:31:20.019Z,5.61
2023-12-30T06:46:17.320Z,5.14
2023-12-30T07:01:14.693Z,5.10
2023-12-30T07:16:11.959Z,5.44
2023-12-30T07:31:09.338Z,5.84
2023-12-30T07:46:06.506Z,6.05
2023-12-30T08:01:03.881Z,6.28
2023-12-30T08:16:01.063Z,6.41
2023-12-30T08:30:58.385Z,6.54
2023-12-30T08:45:55.729Z,6.72
2023-12-30T09:00:52.906Z,6.66
2023-12-30T09:15:50.166Z,6.89
2023-12-30T09:30:47.465Z,6.84
2023-12-30T09:45:44.753Z,6.93
2023-12-30T10:00:42.010Z,7.14
2023-12-30T10:15:39.271Z,7.83
2023-12-30T10:30:36.585Z,8.09
2023-12-30T10:45:33.817Z,8.01
2023-12-30T11:00:31.025Z,7.93
2023-12-30T11:15:28.290Z,8.03
2023-12-30T11:30:25.540Z,8.14
2023-12-30T11:45:22.722Z,8.19
2023-12-30T12:00:19.928Z,8.04
2023-12-30T12:15:17.130Z,7.85
2023-12-30T12:30:14.364Z,7.48
2023-12-30T12:45:11.601Z,7.26
2023-12-30T13:00:08.855Z,7.24
2023-12-30T13:15:06.079Z,7.21
2023-12-30T13:30:03.411Z,7.19
2023-12-30T13:48:01.695Z,7.13
2023-12-30T14:02:59.132Z,7.08
2023-12-30T14:17:56.410Z,7.06
2023-12-30T14:32:53.630Z,7.11
2023-12-30T14:47:50.943Z,7.14
2023-12-30T15:02:48.177Z,7.15
2023-12-30T15:17:45.577Z,7.11
2023-12-30T15:32:42.856Z,7.06
2023-12-30T15:47:40.259Z,6.95
2023-12-30T16:02:37.263Z,6.66
2023-12-30T16:17:34.555Z,6.44
2023-12-30T16:32:31.840Z,6.10
2023-12-30T16:47:29.088Z,5.82
2023-12-30T17:02:26.334Z,5.54
2023-12-30T17:17:23.658Z,5.20
2023-12-30T17:32:21.661Z,4.67
2023-12-30T17:47:18.066Z,4.35
2023-12-30T18:02:15.229Z,4.22
2023-12-30T18:17:12.394Z,3.94
2023-12-30T18:32:09.544Z,3.86
2023-12-30T18:47:06.765Z,3.89
2023-12-30T19:02:03.979Z,3.39
2023-12-30T19:17:01.113Z,2.99
2023-12-30T19:31:58.443Z,3.02
2023-12-30T19:46:55.636Z,2.89
2023-12-30T20:01:52.877Z,2.77
2023-12-30T20:16:50.044Z,2.63
2023-12-30T20:31:47.255Z,2.84
2023-12-30T20:46:44.490Z,2.99
2023-12-30T21:01:41.687Z,2.96
2023-12-30T21:16:38.875Z,2.69
2023-12-30T21:31:36.169Z,2.66
2023-12-30T21:46:33.289Z,2.50
2023-12-30T22:01:30.551Z,2.36
2023-12-30T22:16:27.615Z,1.99
2023-12-30T22:31:24.825Z,1.61
2023-12-30T22:46:22.049Z,1.37
2023-12-30T23:01:19.323Z,1.34
2023-12-30T23:16:16.477Z,1.21
2023-12-30T23:31:13.748Z,1.27
2023-12-30T23:46:10.922Z,1.42
